createdAt,value
2018-11-10T00:00:42.841Z,48.80
2018-11-10T00:03:10.876Z,50.30
2018-11-10T00:05:38.803Z,47.73
2018-11-10T00:08:06.811Z,41.70
2018-11-10T00:10:34.667Z,49.37
2018-11-10T00:13:02.609Z,44.77
2018-11-10T00:15:30.511Z,48.43
2018-11-10T00:17:58.461Z,44.23
2018-11-10T00:20:26.385Z,46.00
2018-11-10T00:22:54.280Z,50.03
2018-11-10T00:25:22.180Z,47.73
2018-11-10T00:27:50.108Z,40.57
2018-11-10T00:30:18.734Z,43.20
2018-11-10T00:32:47.067Z,45.73
2018-11-10T00:35:15.047Z,41.47
2018-11-10T00:37:43.198Z,44.17
2018-11-10T00:40:15.111Z,42.70
2018-11-10T00:42:43.479Z,45.17
2018-11-10T00:45:11.349Z,45.27
2018-11-10T00:47:39.412Z,45.40
2018-11-10T00:50:07.775Z,42.97
2018-11-10T00:52:35.843Z,46.07
2018-11-10T00:55:03.941Z,42.73
2018-11-10T00:57:31.891Z,41.10
2018-11-10T00:59:59.777Z,45.03
2018-11-10T01:02:27.751Z,38.60
2018-11-10T01:04:55.609Z,42.90
2018-11-10T01:07:23.545Z,44.10
2018-11-10T01:09:51.564Z,40.30
2018-11-10T01:12:19.490Z,43.23
2018-11-10T01:14:47.375Z,47.20
2018-11-10T01:17:15.246Z,40.40
2018-11-10T01:19:43.209Z,41.70
2018-11-10T01:22:11.155Z,42.20
2018-11-10T01:24:39.040Z,37.53
2018-11-10T01:27:06.928Z,41.87
2018-11-10T01:29:34.842Z,42.30
2018-11-10T01:32:02.741Z,42.43
2018-11-10T01:34:30.683Z,44.63
2018-11-10T01:36:58.679Z,44.57
2018-11-10T01:39:26.554Z,39.90
2018-11-10T01:41:55.982Z,41.73
2018-11-10T01:44:23.995Z,42.23
2018-11-10T01:46:51.890Z,41.43
2018-11-10T01:49:19.855Z,40.73
2018-11-10T01:51:54.599Z,42.10
2018-11-10T01:54:22.555Z,40.83
2018-11-10T01:56:50.427Z,42.57
2018-11-10T01:59:18.383Z,40.20
2018-11-10T02:01:46.276Z,37.03
2018-11-10T02:04:14.142Z,39.10
2018-11-10T02:06:42.260Z,39.93
2018-11-10T02:09:10.495Z,40.20
2018-11-10T02:11:38.435Z,43.23
2018-11-10T02:14:06.435Z,39.97
2018-11-10T02:16:34.451Z,43.97
2018-11-10T02:19:02.319Z,42.40
2018-11-10T02:21:30.194Z,41.73
2018-11-10T02:23:58.107Z,40.53
2018-11-10T02:26:25.998Z,36.47
2018-11-10T02:28:53.893Z,40.17
2018-11-10T02:31:21.814Z,36.80
2018-11-10T02:33:49.723Z,39.47
2018-11-10T02:36:17.607Z,38.13
2018-11-10T02:38:45.528Z,40.83
2018-11-10T02:41:13.427Z,37.73
2018-11-10T02:43:41.316Z,37.43
2018-11-10T02:46:09.189Z,41.40
2018-11-10T02:48:37.107Z,35.43
2018-11-10T02:51:05.091Z,41.93
2018-11-10T02:53:32.985Z,40.53
2018-11-10T02:56:00.893Z,39.37
2018-11-10T02:58:28.779Z,39.83
2018-11-10T03:00:56.646Z,38.33
2018-11-10T03:03:24.547Z,39.27
2018-11-10T03:05:52.430Z,39.23
2018-11-10T03:08:20.330Z,40.47
2018-11-10T03:10:48.239Z,42.43
2018-11-10T03:13:16.099Z,38.83
2018-11-10T03:15:44.009Z,39.27
2018-11-10T03:18:11.903Z,43.27
2018-11-10T03:20:39.780Z,45.87
2018-11-10T03:23:07.656Z,51.23
2018-11-10T03:25:35.530Z,43.47
2018-11-10T03:28:03.425Z,43.40
2018-11-10T03:30:31.568Z,44.07
2018-11-10T03:32:59.445Z,39.40
2018-11-10T03:35:27.313Z,40.97
2018-11-10T03:37:55.196Z,40.67
2018-11-10T03:42:57.427Z,40.33
2018-11-10T03:45:25.323Z,45.43
2018-11-10T03:47:53.199Z,47.27
2018-11-10T03:50:21.076Z,42.17
2018-11-10T03:52:48.984Z,43.77
2018-11-10T03:55:16.875Z,51.43
2018-11-10T03:57:44.798Z,50.27
2018-11-10T04:00:14.615Z,45.00
2018-11-10T04:02:44.691Z,45.70
2018-11-10T04:05:13.022Z,47.83
2018-11-10T04:07:41.939Z,55.20
2018-11-10T04:10:10.024Z,49.17
2018-11-10T04:12:37.959Z,50.47
2018-11-10T04:15:06.042Z,43.07
2018-11-10T04:17:33.927Z,45.17
2018-11-10T04:20:01.844Z,47.43
2018-11-10T04:22:33.467Z,46.13
2018-11-10T04:25:01.940Z,49.83
2018-11-10T04:27:30.037Z,46.00
2018-11-10T04:29:57.951Z,49.63
2018-11-10T04:32:25.837Z,46.73
2018-11-10T04:34:53.713Z,51.03
2018-11-10T04:37:21.576Z,48.17
2018-11-10T04:39:49.497Z,49.13
2018-11-10T04:42:17.394Z,49.47
2018-11-10T04:44:45.262Z,53.50
2018-11-10T04:47:13.215Z,50.77
2018-11-10T04:49:41.093Z,50.27
2018-11-10T04:52:09.455Z,45.30
2018-11-10T04:54:37.380Z,46.03
2018-11-10T04:57:05.438Z,49.73
2018-11-10T04:59:33.274Z,50.67
2018-11-10T05:02:01.194Z,47.67
2018-11-10T05:04:29.102Z,52.07
2018-11-10T05:06:57.067Z,46.93
2018-11-10T05:09:24.976Z,41.83
2018-11-10T05:11:52.874Z,53.57
2018-11-10T05:14:20.772Z,47.13
2018-11-10T05:16:48.653Z,52.23
2018-11-10T05:19:16.569Z,54.23
2018-11-10T05:21:44.456Z,51.83
2018-11-10T05:24:12.339Z,52.27
2018-11-10T05:26:40.199Z,45.27
2018-11-10T05:29:08.292Z,49.60
2018-11-10T05:31:36.226Z,52.23
2018-11-10T05:34:04.245Z,51.00
2018-11-10T05:36:32.136Z,77.27
2018-11-10T05:39:00.585Z,54.73
2018-11-10T05:41:28.463Z,56.60
2018-11-10T05:43:56.367Z,48.53
2018-11-10T05:46:24.259Z,50.40
2018-11-10T05:48:52.143Z,50.63
2018-11-10T05:51:20.071Z,56.30
2018-11-10T05:53:48.113Z,49.33
2018-11-10T05:56:15.986Z,53.90
2018-11-10T05:58:43.880Z,55.13
2018-11-10T06:01:11.748Z,51.27
2018-11-10T06:03:39.628Z,49.73
2018-11-10T06:06:07.847Z,48.90
2018-11-10T06:08:35.771Z,51.80
2018-11-10T06:11:03.723Z,50.90
2018-11-10T06:13:31.619Z,53.77
2018-11-10T06:15:59.566Z,61.43
2018-11-10T06:18:27.428Z,61.23
2018-11-10T06:20:56.496Z,60.73
2018-11-10T06:23:24.406Z,60.13
2018-11-10T06:25:52.408Z,69.83
2018-11-10T06:28:20.239Z,59.87
2018-11-10T06:30:48.121Z,70.53
2018-11-10T06:33:16.007Z,64.33
2018-11-10T06:35:43.875Z,65.33
2018-11-10T06:38:11.771Z,64.33
2018-11-10T06:40:39.647Z,65.97
2018-11-10T06:43:07.572Z,67.63
2018-11-10T06:45:35.414Z,62.43
2018-11-10T06:48:13.055Z,60.43
2018-11-10T06:50:40.971Z,69.57
2018-11-10T06:53:08.850Z,68.77
2018-11-10T06:55:36.724Z,65.70
2018-11-10T06:58:04.903Z,70.97
2018-11-10T07:00:32.796Z,69.67
2018-11-10T07:03:00.665Z,74.63
2018-11-10T07:05:28.601Z,70.77
2018-11-10T07:07:56.444Z,69.93
2018-11-10T07:10:25.692Z,66.47
2018-11-10T07:12:53.595Z,68.30
2018-11-10T07:15:21.471Z,71.77
2018-11-10T07:17:49.387Z,75.03
2018-11-10T07:20:17.247Z,66.43
2018-11-10T07:22:45.444Z,61.80
2018-11-10T07:25:13.413Z,61.30
2018-11-10T07:27:41.282Z,68.43
2018-11-10T07:30:10.383Z,56.27
2018-11-10T07:32:38.390Z,58.70
2018-11-10T07:35:06.687Z,54.37
2018-11-10T07:37:34.624Z,59.17
2018-11-10T07:40:02.487Z,63.73
2018-11-10T07:42:30.383Z,72.00
2018-11-10T07:44:58.278Z,60.70
2018-11-10T07:47:26.160Z,59.47
2018-11-10T07:49:54.035Z,50.63
2018-11-10T07:52:21.976Z,58.17
2018-11-10T07:54:50.007Z,60.93
2018-11-10T07:57:17.892Z,55.40
2018-11-10T07:59:45.760Z,54.13
2018-11-10T08:02:13.718Z,55.80
2018-11-10T08:04:41.723Z,52.17
2018-11-10T08:07:09.651Z,53.10
2018-11-10T08:09:37.627Z,55.73
2018-11-10T08:12:05.815Z,63.97
2018-11-10T08:14:33.691Z,55.30
2018-11-10T08:17:01.623Z,57.60
2018-11-10T08:19:29.552Z,57.17
2018-11-10T08:21:57.491Z,62.93
2018-11-10T08:24:25.397Z,57.33
2018-11-10T08:26:53.316Z,53.67
2018-11-10T08:29:21.199Z,57.83
2018-11-10T08:31:49.119Z,54.47
2018-11-10T08:34:17.045Z,50.40
2018-11-10T08:36:44.963Z,92.30
2018-11-10T08:39:13.926Z,61.33
2018-11-10T08:41:42.298Z,62.57
2018-11-10T08:44:10.334Z,55.63
2018-11-10T08:46:38.298Z,52.90
2018-11-10T08:49:06.286Z,56.37
2018-11-10T08:51:35.584Z,55.83
2018-11-10T08:54:03.543Z,63.80
2018-11-10T08:56:31.592Z,51.20
2018-11-10T08:58:59.512Z,58.53
2018-11-10T09:01:27.419Z,50.93
2018-11-10T09:03:55.323Z,54.70
2018-11-10T09:06:23.279Z,52.57
2018-11-10T09:08:51.221Z,55.47
2018-11-10T09:11:19.167Z,50.13
2018-11-10T09:13:47.087Z,56.87
2018-11-10T09:16:15.031Z,53.53
2018-11-10T09:18:42.919Z,53.00
2018-11-10T09:21:10.861Z,55.70
2018-11-10T09:23:38.760Z,54.77
2018-11-10T09:26:06.687Z,53.93
2018-11-10T09:28:34.572Z,57.57
2018-11-10T09:31:02.583Z,54.30
2018-11-10T09:33:30.362Z,52.00
2018-11-10T09:35:58.260Z,47.33
2018-11-10T09:38:26.178Z,45.90
2018-11-10T09:40:54.064Z,47.73
2018-11-10T09:43:21.944Z,46.47
2018-11-10T09:45:49.835Z,44.90
2018-11-10T09:48:17.731Z,48.30
2018-11-10T09:50:45.752Z,51.10
2018-11-10T09:53:13.659Z,51.23
2018-11-10T09:55:41.558Z,41.93
2018-11-10T09:58:09.460Z,43.40
2018-11-10T10:00:37.350Z,47.37
2018-11-10T10:03:05.235Z,48.63
2018-11-10T10:05:33.119Z,51.27
2018-11-10T10:08:00.993Z,44.87
2018-11-10T10:10:28.930Z,48.60
2018-11-10T10:12:56.911Z,53.40
2018-11-10T10:15:24.782Z,47.23
2018-11-10T10:17:52.858Z,48.23
2018-11-10T10:20:20.863Z,48.63
2018-11-10T10:22:49.395Z,44.27
2018-11-10T10:25:17.866Z,42.17
2018-11-10T10:27:46.571Z,38.63
2018-11-10T10:30:16.175Z,41.77
2018-11-10T10:32:45.111Z,39.27
2018-11-10T10:35:13.355Z,40.87
2018-11-10T10:37:41.313Z,40.40
2018-11-10T10:40:10.294Z,42.37
2018-11-10T10:42:38.338Z,32.33
2018-11-10T10:45:06.668Z,38.67
2018-11-10T10:47:34.554Z,40.23
2018-11-10T10:50:02.469Z,37.70
2018-11-10T10:52:30.352Z,37.93
2018-11-10T10:54:58.266Z,39.50
2018-11-10T10:57:26.151Z,36.23
2018-11-10T10:59:55.202Z,36.80
2018-11-10T11:02:28.523Z,37.23
2018-11-10T11:04:58.727Z,37.97
2018-11-10T11:07:27.275Z,36.83
2018-11-10T11:09:55.189Z,35.80
2018-11-10T11:12:23.202Z,37.47
2018-11-10T11:14:51.195Z,36.87
2018-11-10T11:17:19.075Z,34.77
2018-11-10T11:19:47.039Z,36.20
2018-11-10T11:22:14.927Z,37.67
2018-11-10T11:24:42.795Z,36.37
2018-11-10T11:27:10.746Z,33.97
2018-11-10T11:29:38.669Z,32.17
2018-11-10T11:32:06.523Z,30.87
2018-11-10T11:34:34.506Z,33.47
2018-11-10T11:37:02.493Z,33.80
2018-11-10T11:39:30.388Z,36.70
2018-11-10T11:41:58.293Z,30.50
2018-11-10T11:44:27.368Z,33.37
2018-11-10T11:46:55.378Z,34.80
2018-11-10T11:49:23.240Z,31.33
2018-11-10T11:51:52.754Z,36.23
2018-11-10T11:54:20.778Z,32.43
2018-11-10T11:56:48.747Z,33.43
2018-11-10T11:59:16.635Z,32.10
2018-11-10T12:01:44.595Z,32.00
2018-11-10T12:04:13.056Z,33.27
2018-11-10T12:06:40.966Z,34.03
2018-11-10T12:09:09.751Z,32.87
2018-11-10T12:11:37.663Z,32.77
2018-11-10T12:14:05.630Z,31.00
2018-11-10T12:16:33.567Z,33.47
2018-11-10T12:19:01.488Z,31.80
2018-11-10T12:21:29.405Z,30.20
2018-11-10T12:23:57.321Z,30.83
2018-11-10T12:26:25.303Z,31.73
2018-11-10T12:28:53.197Z,27.43
2018-11-10T12:31:21.163Z,28.80
2018-11-10T12:33:49.127Z,27.87
2018-11-10T12:36:17.014Z,31.00
2018-11-10T12:38:45.011Z,29.30
2018-11-10T12:41:12.851Z,27.50
2018-11-10T12:43:40.733Z,31.43
2018-11-10T12:46:08.655Z,29.70
2018-11-10T12:48:36.555Z,31.07
2018-11-10T12:51:04.714Z,32.87
2018-11-10T12:53:32.603Z,33.73
2018-11-10T12:56:00.486Z,28.37
2018-11-10T12:58:28.406Z,26.33
2018-11-10T13:00:56.317Z,29.30
2018-11-10T13:03:24.193Z,26.30
2018-11-10T13:05:52.084Z,29.17
2018-11-10T13:08:20.058Z,27.80
2018-11-10T13:10:48.025Z,29.60
2018-11-10T13:13:15.965Z,26.83
2018-11-10T13:15:44.013Z,32.50
2018-11-10T13:18:12.039Z,27.03
2018-11-10T13:20:39.980Z,31.20
2018-11-10T13:23:07.980Z,29.10
2018-11-10T13:25:35.910Z,28.03
2018-11-10T13:28:03.903Z,28.80
2018-11-10T13:30:31.850Z,40.43
2018-11-10T13:32:59.932Z,40.07
2018-11-10T13:35:27.877Z,31.40
2018-11-10T13:37:55.944Z,33.30
2018-11-10T13:40:23.830Z,28.77
2018-11-10T13:42:51.731Z,38.40
2018-11-10T13:45:19.674Z,31.77
2018-11-10T13:47:47.530Z,41.30
2018-11-10T13:50:15.402Z,25.67
2018-11-10T13:52:43.840Z,31.57
2018-11-10T13:55:12.708Z,27.57
2018-11-10T13:57:40.802Z,26.00
2018-11-10T14:00:09.750Z,26.23
2018-11-10T14:02:37.704Z,27.00
2018-11-10T14:05:05.790Z,26.60
2018-11-10T14:07:33.728Z,30.60
2018-11-10T14:10:01.721Z,28.43
2018-11-10T14:12:29.785Z,28.27
2018-11-10T14:14:57.696Z,32.57
2018-11-10T14:17:25.636Z,28.47
2018-11-10T14:19:53.574Z,29.33
2018-11-10T14:22:21.462Z,65.27
2018-11-10T14:24:49.346Z,33.63
2018-11-10T14:27:17.294Z,30.33
2018-11-10T14:29:45.163Z,36.90
2018-11-10T14:32:13.131Z,30.63
2018-11-10T14:34:41.121Z,30.77
2018-11-10T14:37:09.448Z,30.73
2018-11-10T14:39:37.452Z,30.10
2018-11-10T14:42:05.426Z,24.43
2018-11-10T14:44:33.357Z,26.10
2018-11-10T14:47:01.248Z,30.97
2018-11-10T14:49:29.134Z,29.20
2018-11-10T14:51:58.335Z,27.43
2018-11-10T14:54:26.199Z,27.13
2018-11-10T14:56:54.134Z,27.53
2018-11-10T14:59:22.032Z,26.73
2018-11-10T15:01:49.923Z,29.80
2018-11-10T15:04:17.802Z,32.33
2018-11-10T15:06:45.702Z,27.63
2018-11-10T15:09:13.666Z,23.40
2018-11-10T15:11:41.603Z,28.17
2018-11-10T15:14:09.502Z,24.70
2018-11-10T15:16:37.443Z,27.97
2018-11-10T15:19:05.408Z,25.03
2018-11-10T15:21:33.312Z,21.80
2018-11-10T15:24:01.221Z,24.87
2018-11-10T15:26:29.706Z,20.77
2018-11-10T15:28:57.655Z,19.50
2018-11-10T15:31:25.625Z,19.60
2018-11-10T15:33:53.503Z,18.07
2018-11-10T15:36:21.453Z,17.47
2018-11-10T15:38:50.841Z,20.97
2018-11-10T15:41:18.826Z,16.73
2018-11-10T15:43:46.694Z,16.13
2018-11-10T15:46:14.647Z,17.13
2018-11-10T15:48:42.526Z,15.50
2018-11-10T15:51:10.531Z,14.77
2018-11-10T15:53:38.403Z,14.50
2018-11-10T15:56:06.511Z,14.70
2018-11-10T15:58:34.418Z,12.07
2018-11-10T16:01:02.380Z,14.03
2018-11-10T16:03:30.319Z,10.93
2018-11-10T16:05:58.344Z,10.87
2018-11-10T16:08:26.269Z,14.03
2018-11-10T16:10:54.153Z,13.40
2018-11-10T16:13:22.070Z,10.90
2018-11-10T16:15:49.959Z,10.87
2018-11-10T16:18:17.858Z,10.50
2018-11-10T16:20:45.787Z,9.00
2018-11-10T16:23:13.722Z,11.33
2018-11-10T16:25:41.630Z,8.53
2018-11-10T16:28:09.602Z,7.97
2018-11-10T16:30:37.504Z,8.67
2018-11-10T16:33:05.574Z,9.33
2018-11-10T16:35:33.467Z,7.33
2018-11-10T16:38:01.386Z,7.50
2018-11-10T16:40:29.280Z,11.53
2018-11-10T16:42:57.195Z,8.47
2018-11-10T16:45:25.073Z,7.67
2018-11-10T16:47:52.975Z,7.60
2018-11-10T16:50:20.871Z,7.97
2018-11-10T16:52:48.752Z,8.57
2018-11-10T16:55:16.710Z,7.17
2018-11-10T16:57:44.658Z,7.70
2018-11-10T17:00:14.025Z,6.17
2018-11-10T17:02:42.183Z,11.67
2018-11-10T17:05:10.223Z,7.20
2018-11-10T17:07:38.546Z,7.20
2018-11-10T17:10:07.450Z,7.77
2018-11-10T17:12:35.403Z,5.80
2018-11-10T17:15:03.506Z,6.67
2018-11-10T17:17:31.447Z,6.40
2018-11-10T17:19:59.700Z,6.00
2018-11-10T17:22:27.700Z,5.90
2018-11-10T17:24:55.480Z,6.90
2018-11-10T17:27:23.373Z,4.83
2018-11-10T17:29:51.272Z,8.97
2018-11-10T17:32:19.170Z,7.93
2018-11-10T17:34:47.043Z,8.40
2018-11-10T17:37:14.955Z,7.30
2018-11-10T17:39:49.502Z,9.37
2018-11-10T17:42:17.339Z,11.23
2018-11-10T17:44:45.150Z,5.87
2018-11-10T17:47:13.111Z,5.30
2018-11-10T17:49:40.972Z,5.03
2018-11-10T17:52:08.957Z,8.50
2018-11-10T17:54:36.761Z,4.53
2018-11-10T17:57:04.704Z,7.83
2018-11-10T17:59:32.619Z,7.53
2018-11-10T18:02:00.765Z,5.67
2018-11-10T18:04:28.818Z,6.53
2018-11-10T18:06:56.723Z,7.33
2018-11-10T18:09:24.601Z,5.07
2018-11-10T18:11:52.486Z,6.57
2018-11-10T18:14:20.390Z,4.73
2018-11-10T18:16:48.378Z,6.90
2018-11-10T18:19:16.301Z,5.47
2018-11-10T18:21:44.184Z,7.67
2018-11-10T18:24:12.080Z,12.50
2018-11-10T18:26:40.030Z,16.57
2018-11-10T18:29:08.147Z,20.60
2018-11-10T18:31:36.075Z,65.30
2018-11-10T18:34:04.083Z,20.27
2018-11-10T18:36:31.964Z,12.87
2018-11-10T18:38:59.848Z,9.00
2018-11-10T18:41:27.725Z,7.77
2018-11-10T18:43:55.612Z,8.97
2018-11-10T18:46:23.513Z,9.47
2018-11-10T18:48:51.393Z,7.73
2018-11-10T18:51:20.912Z,10.20
2018-11-10T18:56:34.826Z,7.67
2018-11-10T18:59:02.835Z,11.00
2018-11-10T19:01:30.747Z,7.03
2018-11-10T19:03:58.642Z,9.77
2018-11-10T19:06:26.644Z,7.37
2018-11-10T19:08:54.443Z,8.30
2018-11-10T19:11:22.437Z,6.43
2018-11-10T19:13:50.415Z,6.50
2018-11-10T19:16:18.358Z,9.60
2018-11-10T19:18:46.317Z,6.57
2018-11-10T19:21:14.279Z,7.23
2018-11-10T19:23:42.203Z,7.57
2018-11-10T19:26:10.111Z,8.43
2018-11-10T19:28:38.016Z,7.87
2018-11-10T19:31:05.915Z,52.60
2018-11-10T19:33:33.828Z,12.40
2018-11-10T19:36:01.800Z,7.40
2018-11-10T19:38:29.766Z,8.30
2018-11-10T19:40:57.731Z,6.87
2018-11-10T19:43:25.615Z,7.70
2018-11-10T19:45:53.565Z,7.73
2018-11-10T19:48:21.471Z,7.10
2018-11-10T19:50:49.515Z,10.07
2018-11-10T19:53:17.366Z,7.40
2018-11-10T19:55:45.248Z,6.83
2018-11-10T19:58:13.217Z,7.33
2018-11-10T20:00:41.153Z,8.47
2018-11-10T20:03:08.959Z,5.90
2018-11-10T20:05:36.903Z,4.40
2018-11-10T20:08:04.979Z,7.83
2018-11-10T20:10:32.951Z,5.43
2018-11-10T20:13:00.849Z,5.47
2018-11-10T20:15:28.759Z,8.03
2018-11-10T20:17:57.646Z,5.00
2018-11-10T20:20:25.758Z,5.37
2018-11-10T20:22:55.277Z,4.47
2018-11-10T20:25:24.338Z,3.90
2018-11-10T20:27:52.219Z,5.07
2018-11-10T20:30:20.504Z,4.90
2018-11-10T20:32:48.523Z,4.57
2018-11-10T20:35:16.423Z,5.03
2018-11-10T20:37:44.926Z,3.07
2018-11-10T20:40:13.788Z,4.53
2018-11-10T20:42:41.871Z,3.13
2018-11-10T20:45:13.309Z,6.90
2018-11-10T20:47:41.603Z,5.60
2018-11-10T20:50:09.659Z,3.90
2018-11-10T20:52:37.823Z,6.17
2018-11-10T20:55:06.690Z,4.63
2018-11-10T20:57:35.119Z,2.83
2018-11-10T21:00:03.654Z,2.83
2018-11-10T21:02:31.575Z,6.10
2018-11-10T21:04:59.507Z,4.27
2018-11-10T21:07:27.415Z,3.00
2018-11-10T21:09:55.278Z,5.80
2018-11-10T21:12:23.363Z,2.67
2018-11-10T21:14:51.315Z,4.13
2018-11-10T21:17:19.252Z,4.27
2018-11-10T21:19:48.179Z,3.53
2018-11-10T21:22:16.231Z,3.03
2018-11-10T21:24:44.203Z,4.40
2018-11-10T21:27:12.172Z,4.13
2018-11-10T21:29:40.325Z,3.77
2018-11-10T21:32:08.715Z,5.40
2018-11-10T21:34:36.816Z,2.70
2018-11-10T21:37:05.099Z,3.00
2018-11-10T21:39:33.042Z,2.60
2018-11-10T21:42:00.912Z,3.10
2018-11-10T21:44:28.962Z,3.30
2018-11-10T21:46:56.871Z,3.97
2018-11-10T21:49:25.465Z,4.27
2018-11-10T21:51:54.059Z,2.10
2018-11-10T21:54:23.143Z,3.73
2018-11-10T21:56:51.099Z,5.63
2018-11-10T21:59:19.051Z,3.87
2018-11-10T22:01:47.271Z,3.87
2018-11-10T22:04:15.656Z,5.60
2018-11-10T22:06:43.567Z,3.57
2018-11-10T22:09:12.424Z,3.30
2018-11-10T22:11:41.778Z,4.83
2018-11-10T22:14:09.651Z,7.70
2018-11-10T22:16:37.628Z,6.07
2018-11-10T22:19:05.591Z,4.30
2018-11-10T22:21:33.663Z,4.93
2018-11-10T22:24:01.808Z,3.73
2018-11-10T22:26:29.711Z,6.50
2018-11-10T22:28:57.843Z,4.57
2018-11-10T22:31:26.051Z,3.77
2018-11-10T22:33:54.091Z,6.23
2018-11-10T22:36:21.963Z,6.10
2018-11-10T22:38:49.927Z,7.27
2018-11-10T22:41:17.815Z,6.47
2018-11-10T22:43:45.786Z,4.33
2018-11-10T22:46:13.958Z,5.13
2018-11-10T22:48:41.823Z,4.27
2018-11-10T22:51:12.180Z,6.93
2018-11-10T22:53:40.344Z,8.00
2018-11-10T22:56:08.396Z,5.30
2018-11-10T22:58:36.369Z,4.07
2018-11-10T23:01:06.751Z,7.23
2018-11-10T23:03:35.396Z,5.73
2018-11-10T23:06:03.258Z,7.20
2018-11-10T23:08:31.212Z,4.73
2018-11-10T23:10:59.188Z,6.33
2018-11-10T23:13:27.117Z,7.23
2018-11-10T23:15:55.010Z,4.80
2018-11-10T23:18:22.880Z,4.53
2018-11-10T23:20:50.814Z,6.80
2018-11-10T23:23:18.738Z,8.00
2018-11-10T23:25:47.275Z,5.80
2018-11-10T23:28:15.321Z,7.50
2018-11-10T23:30:43.179Z,8.07
2018-11-10T23:33:11.119Z,5.37
2018-11-10T23:35:39.066Z,7.37
2018-11-10T23:38:07.151Z,6.37
2018-11-10T23:40:35.045Z,8.97
2018-11-10T23:43:02.996Z,17.37
2018-11-10T23:45:30.923Z,9.40
2018-11-10T23:47:58.965Z,9.70
2018-11-10T23:50:26.966Z,9.83
2018-11-10T23:52:54.947Z,10.97
2018-11-10T23:55:22.909Z,12.67
2018-11-10T23:57:50.798Z,9.93
